Time;durP1;ratioP1;P1;durP2;ratioP2;P2;SDS_P1;SDS_P2;PMS_P1;PMS_P2;Temp;Humidity;BMP_temperature;BMP_pressure;BME280_temperature;BME280_humidity;BME280_pressure;Samples;Min_cycle;Max_cycle;Signal;HPM_P1;HPM_P2
2023/06/23 00:00:44;;;;;;;16.75;8.83;;;;;;;22.04;66.55;100275.73;1784807;80;21083;-64
2023/06/23 00:03:15;;;;;;;10.23;7.90;;;;;;;21.94;66.90;100267.31;1783666;79;21027;-65
2023/06/23 00:05:44;;;;;;;12.98;8.55;;;;;;;21.87;67.28;100270.37;1774467;81;21008;-63
2023/06/23 00:08:14;;;;;;;11.38;8.13;;;;;;;21.76;67.63;100265.32;1774556;80;21025;-64
2023/06/23 00:10:44;;;;;;;10.63;8.40;;;;;;;21.67;68.12;100272.55;1774422;79;20996;-64
2023/06/23 00:13:15;;;;;;;10.65;8.13;;;;;;;21.62;68.51;100276.71;1774381;81;21525;-65
2023/06/23 00:15:44;;;;;;;11.28;8.10;;;;;;;21.65;68.67;100271.98;1701845;84;21122;-65
2023/06/23 00:18:15;;;;;;;12.25;8.83;;;;;;;21.63;68.76;100265.84;1606207;88;21087;-63
2023/06/23 00:20:45;;;;;;;10.98;8.18;;;;;;;21.56;68.95;100267.21;1701873;84;21059;-65
2023/06/23 00:23:16;;;;;;;10.45;8.30;;;;;;;21.53;69.11;100267.20;1627854;88;21066;-62
2023/06/23 00:25:46;;;;;;;12.05;8.43;;;;;;;21.51;69.19;100268.87;1701906;84;21549;-63
2023/06/23 00:28:15;;;;;;;11.12;8.83;;;;;;;21.49;69.30;100263.28;1701863;84;21039;-64
2023/06/23 00:30:47;;;;;;;10.70;8.00;;;;;;;21.47;69.37;100259.93;1701901;84;21027;-64
2023/06/23 00:33:17;;;;;;;12.75;8.48;;;;;;;21.45;69.54;100264.91;1646129;84;21213;-64
2023/06/23 00:35:48;;;;;;;9.43;8.10;;;;;;;21.40;69.68;100264.33;1763569;81;21510;-63
2023/06/23 00:38:17;;;;;;;10.75;8.80;;;;;;;21.36;69.88;100260.97;1774814;81;21016;-65
2023/06/23 00:40:48;;;;;;;9.55;8.55;;;;;;;21.32;70.04;100263.46;1763702;81;21317;-64
2023/06/23 00:43:20;;;;;;;9.90;8.48;;;;;;;21.29;70.21;100261.77;1774544;81;21008;-64
2023/06/23 00:45:50;;;;;;;12.35;8.68;;;;;;;21.29;70.33;100261.22;1701876;84;21459;-64
2023/06/23 00:48:20;;;;;;;12.23;9.05;;;;;;;21.33;70.38;100264.30;1627993;88;21068;-64
2023/06/23 00:50:50;;;;;;;10.23;8.25;;;;;;;21.38;70.39;100261.53;1701999;84;21525;-64
2023/06/23 00:53:20;;;;;;;11.28;8.10;;;;;;;21.43;70.31;100262.95;1701984;84;21479;-63
2023/06/23 00:55:50;;;;;;;11.78;8.93;;;;;;;21.47;70.19;100262.72;1607256;88;21603;-63
2023/06/23 00:58:20;;;;;;;13.22;9.25;;;;;;;21.49;69.94;100259.09;1702086;84;21090;-63
2023/06/23 01:00:50;;;;;;;12.78;9.03;;;;;;;21.48;69.69;100261.61;1701708;84;21067;-62
2023/06/23 01:03:20;;;;;;;11.53;8.55;;;;;;;21.48;69.49;100257.42;1701865;84;21549;-63
2023/06/23 01:05:52;;;;;;;14.95;8.45;;;;;;;21.45;69.50;100260.73;1627348;88;21048;-63
2023/06/23 01:08:27;;;;;;;12.63;8.50;;;;;;;21.45;69.56;100257.94;1677205;84;21044;-65
2023/06/23 01:11:03;;;;;;;11.48;8.65;;;;;;;21.43;69.59;100257.37;1746470;80;21012;-63
2023/06/23 01:13:46;;;;;;;11.48;8.60;;;;;;;21.40;69.65;100260.16;1782788;80;21076;-63
2023/06/23 01:16:23;;;;;;;9.65;8.13;;;;;;;21.39;69.67;100260.42;1764251;80;21071;-63
2023/06/23 01:19:32;;;;;;;11.45;8.68;;;;;;;21.39;69.64;100260.42;1764681;80;21515;-65
2023/06/23 01:22:16;;;;;;;11.20;8.80;;;;;;;21.36;69.75;100250.66;1739921;80;21055;-63
2023/06/23 01:25:22;;;;;;;9.98;8.28;;;;;;;21.35;69.75;100256.51;1763203;80;21060;-63
2023/06/23 01:28:17;;;;;;;11.57;8.40;;;;;;;21.38;69.60;100248.99;1782662;80;21577;-64
2023/06/23 01:30:53;;;;;;;11.78;9.20;;;;;;;21.42;69.27;100262.67;1782748;80;21012;-63
2023/06/23 01:33:22;;;;;;;10.20;8.58;;;;;;;21.44;68.84;100264.07;1763974;80;21024;-63
2023/06/23 01:36:03;;;;;;;11.10;8.03;;;;;;;21.49;68.28;100266.91;1764436;80;21224;-63
2023/06/23 01:38:41;;;;;;;9.10;7.33;;;;;;;21.58;67.01;100264.43;1782407;80;21063;-63
2023/06/23 01:41:15;;;;;;;9.83;7.90;;;;;;;21.68;66.08;100266.41;1782656;80;21565;-63
2023/06/23 01:43:47;;;;;;;9.43;7.90;;;;;;;21.78;65.33;100270.06;1782881;80;21051;-63
2023/06/23 01:46:25;;;;;;;11.35;7.95;;;;;;;21.87;64.91;100280.13;1782728;80;21020;-64
2023/06/23 01:48:54;;;;;;;12.63;8.30;;;;;;;21.93;64.33;100269.81;1782724;80;21436;-63
2023/06/23 01:51:26;;;;;;;12.25;8.58;;;;;;;21.99;63.72;100274.30;1763269;80;21005;-64
2023/06/23 01:53:56;;;;;;;11.05;7.72;;;;;;;22.05;63.29;100274.06;1682176;85;21474;-63
2023/06/23 01:56:26;;;;;;;12.75;8.38;;;;;;;22.12;62.94;100276.05;1682025;85;21071;-62
2023/06/23 01:58:56;;;;;;;11.08;8.50;;;;;;;22.17;62.58;100278.02;1682159;85;21530;-63
2023/06/23 02:01:26;;;;;;;10.08;8.68;;;;;;;22.21;62.16;100275.50;1681997;85;21035;-63
2023/06/23 02:03:56;;;;;;;10.55;7.78;;;;;;;22.22;62.01;100275.78;1682054;85;21091;-64
2023/06/23 02:06:27;;;;;;;10.48;8.28;;;;;;;22.24;61.73;100273.00;1682015;85;21491;-62
2023/06/23 02:08:57;;;;;;;13.15;7.95;;;;;;;22.27;61.51;100272.44;1682011;85;21090;-62
2023/06/23 02:11:28;;;;;;;9.08;7.85;;;;;;;22.29;61.43;100282.77;1707328;80;21020;-63
2023/06/23 02:13:57;;;;;;;10.28;8.58;;;;;;;22.29;61.36;100271.60;1782886;80;21024;-63
2023/06/23 02:16:28;;;;;;;10.72;8.25;;;;;;;22.30;61.33;100273.28;1782977;80;21039;-63
2023/06/23 02:18:58;;;;;;;9.73;7.87;;;;;;;22.32;61.17;100291.98;1782903;80;21469;-63
2023/06/23 02:21:28;;;;;;;11.50;7.75;;;;;;;22.35;61.13;100281.66;1682171;85;21201;-64
2023/06/23 02:23:58;;;;;;;15.80;8.53;;;;;;;22.36;60.94;100287.52;1682124;85;21117;-62
2023/06/23 02:26:29;;;;;;;12.18;8.88;;;;;;;22.36;60.88;100287.52;1659712;85;21183;-63
2023/06/23 02:28:59;;;;;;;11.20;8.55;;;;;;;22.35;60.84;100284.45;1682163;85;21100;-63
2023/06/23 02:31:29;;;;;;;11.90;8.53;;;;;;;22.34;60.78;100284.16;1627978;87;21240;-64
2023/06/23 02:33:59;;;;;;;10.95;9.00;;;;;;;22.33;60.76;100279.70;1627486;88;21195;-62
2023/06/23 02:36:33;;;;;;;10.78;8.68;;;;;;;22.30;60.69;100273.83;1627739;88;21494;-63
2023/06/23 02:39:07;;;;;;;12.85;9.20;;;;;;;22.28;60.75;100288.07;1627852;88;21090;-62
2023/06/23 02:41:37;;;;;;;11.08;9.35;;;;;;;22.28;60.81;100278.30;1628007;88;21133;-61
2023/06/23 02:44:15;;;;;;;12.13;8.88;;;;;;;22.27;60.81;100281.37;1606836;88;21059;-62
2023/06/23 02:46:45;;;;;;;12.70;9.70;;;;;;;22.27;60.86;100282.20;1661796;84;21099;-63
2023/06/23 02:49:18;;;;;;;13.08;9.33;;;;;;;22.28;60.87;100277.46;1727990;80;21086;-62
2023/06/23 02:51:47;;;;;;;15.38;9.38;;;;;;;22.29;60.86;100277.74;1739457;80;21545;-65
2023/06/23 02:54:19;;;;;;;12.70;9.15;;;;;;;22.30;60.88;100273.83;1739900;80;21150;-62
2023/06/23 02:56:48;;;;;;;16.67;10.35;;;;;;;22.31;60.94;100275.52;1782888;80;21039;-63
2023/06/23 02:59:20;;;;;;;14.20;9.38;;;;;;;22.33;61.01;100271.88;1681397;85;21024;-63
2023/06/23 03:01:52;;;;;;;14.40;9.98;;;;;;;22.31;61.11;100271.32;1658915;84;21619;-64
2023/06/23 03:04:22;;;;;;;13.15;9.18;;;;;;;22.30;61.13;100273.28;1683407;85;21119;-63
2023/06/23 03:06:54;;;;;;;11.57;9.73;;;;;;;22.30;61.14;100267.70;1689075;85;21063;-62
2023/06/23 03:09:26;;;;;;;14.70;9.35;;;;;;;22.34;61.22;100268.81;1619676;85;21012;-62
2023/06/23 03:11:57;;;;;;;13.98;9.38;;;;;;;22.36;61.27;100262.39;1666821;85;21491;-63
2023/06/23 03:14:27;;;;;;;12.58;9.95;;;;;;;22.40;61.22;100264.91;1689001;85;21463;-64
2023/06/23 03:17:03;;;;;;;14.13;9.95;;;;;;;22.41;61.28;100258.20;1719558;80;21027;-63
2023/06/23 03:19:59;;;;;;;10.93;9.13;;;;;;;22.41;61.32;100256.80;1788044;80;21175;-63
2023/06/23 03:22:47;;;;;;;13.72;9.78;;;;;;;22.44;61.40;100260.44;1788144;80;21412;-64
2023/06/23 03:25:21;;;;;;;13.50;9.50;;;;;;;22.45;61.41;100256.53;1788362;80;20996;-61
2023/06/23 03:27:50;;;;;;;17.02;10.18;;;;;;;22.47;61.49;100246.47;1788223;80;21044;-64
2023/06/23 03:30:43;;;;;;;16.00;11.00;;;;;;;22.47;61.66;100249.27;1771164;80;21428;-62
2023/06/23 03:33:17;;;;;;;17.15;10.13;;;;;;;22.48;61.80;100247.31;1788483;80;21019;-63
2023/06/23 03:35:47;;;;;;;12.65;10.28;;;;;;;22.48;61.93;100243.96;1788425;80;21003;-62
2023/06/23 03:38:20;;;;;;;14.55;9.78;;;;;;;22.50;61.97;100242.28;1788505;80;21000;-64
2023/06/23 03:41:00;;;;;;;17.50;10.23;;;;;;;22.51;62.02;100239.77;1771112;80;21047;-62
2023/06/23 03:43:44;;;;;;;17.77;10.40;;;;;;;22.53;61.99;100237.53;1788463;80;21399;-62
2023/06/23 03:46:33;;;;;;;17.07;10.75;;;;;;;22.54;61.93;100240.60;1788477;80;21000;-62
2023/06/23 03:49:04;;;;;;;13.55;9.83;;;;;;;22.55;61.92;100240.32;1770973;80;21008;-63
2023/06/23 03:51:34;;;;;;;14.43;10.38;;;;;;;22.58;61.96;100239.76;1788213;79;20996;-63
2023/06/23 03:54:04;;;;;;;12.15;10.35;;;;;;;22.62;61.98;100237.23;1788255;80;21031;-63
2023/06/23 03:56:34;;;;;;;15.98;10.55;;;;;;;22.63;62.03;100236.96;1771412;80;21047;-62
2023/06/23 03:59:04;;;;;;;12.40;10.18;;;;;;;22.65;62.05;100238.91;1788507;79;21616;-63
2023/06/23 04:01:35;;;;;;;13.83;10.53;;;;;;;22.67;61.93;100237.23;1788472;79;21019;-63
2023/06/23 04:04:05;;;;;;;13.83;9.75;;;;;;;22.71;61.99;100234.99;1788238;80;21384;-63
2023/06/23 04:06:35;;;;;;;17.80;10.63;;;;;;;22.74;61.96;100229.40;1763796;81;21040;-63
2023/06/23 04:09:05;;;;;;;14.05;10.82;;;;;;;22.74;61.93;100230.80;1763683;81;21043;-63
2023/06/23 04:11:36;;;;;;;17.57;9.80;;;;;;;22.77;61.91;100217.69;1774564;79;21040;-63
2023/06/23 04:14:06;;;;;;;14.98;10.40;;;;;;;22.80;61.93;100225.54;1774579;81;21459;-63
2023/06/23 04:16:37;;;;;;;13.93;10.72;;;;;;;22.85;61.91;100227.48;1774485;80;21021;-64
2023/06/23 04:19:07;;;;;;;15.55;10.28;;;;;;;22.91;61.91;100229.98;1774480;81;21463;-63
2023/06/23 04:21:38;;;;;;;17.62;11.05;;;;;;;22.97;61.79;100233.59;1763668;81;21044;-63
2023/06/23 04:24:09;;;;;;;17.45;10.93;;;;;;;23.03;61.91;100234.70;1774670;80;21056;-64
2023/06/23 04:26:40;;;;;;;17.40;10.88;;;;;;;23.11;61.87;100234.67;1763785;81;21428;-63
2023/06/23 04:29:12;;;;;;;27.60;12.03;;;;;;;23.19;61.88;100238.27;1739663;81;21067;-62
2023/06/23 04:31:43;;;;;;;14.80;10.82;;;;;;;23.28;61.96;100235.72;1774676;80;21142;-63
2023/06/23 04:34:12;;;;;;;15.78;11.18;;;;;;;23.36;61.48;100244.36;1774485;80;21001;-62
2023/06/23 04:36:53;;;;;;;21.68;11.33;;;;;;;23.47;61.33;100240.98;1774622;81;21440;-63
2023/06/23 04:39:27;;;;;;;19.35;11.35;;;;;;;23.55;61.23;100241.81;1774441;81;21040;-64
2023/06/23 04:42:02;;;;;;;17.02;11.03;;;;;;;23.65;61.18;100238.13;1774576;80;21514;-63
2023/06/23 04:44:38;;;;;;;20.23;12.47;;;;;;;23.73;61.06;100233.88;1774759;81;21537;-63
2023/06/23 04:47:07;;;;;;;13.70;10.68;;;;;;;23.82;60.94;100244.73;1774477;80;21457;-62
2023/06/23 04:49:37;;;;;;;18.82;13.53;;;;;;;23.89;60.79;100240.48;1763779;81;21056;-63
2023/06/23 04:52:07;;;;;;;18.12;11.45;;;;;;;23.96;61.09;100243.80;1763811;81;21096;-64
2023/06/23 04:54:42;;;;;;;15.15;12.03;;;;;;;24.03;60.81;100237.31;1774447;79;21392;-63
2023/06/23 04:57:17;;;;;;;16.57;11.25;;;;;;;24.16;60.60;100236.41;1774663;80;21004;-62
2023/06/23 04:59:51;;;;;;;16.10;11.20;;;;;;;24.32;60.59;100234.63;1763957;81;21013;-63
2023/06/23 05:02:21;;;;;;;17.62;11.25;;;;;;;24.53;60.42;100228.84;1774562;79;21482;-63
2023/06/23 05:04:50;;;;;;;12.68;10.80;;;;;;;24.77;59.80;100226.95;1765152;80;21079;-64
2023/06/23 05:07:22;;;;;;;18.27;11.18;;;;;;;25.02;59.34;100224.47;1763536;80;21495;-64
2023/06/23 05:09:52;;;;;;;15.10;10.35;;;;;;;25.32;58.36;100226.06;1782663;80;21047;-64
2023/06/23 05:12:23;;;;;;;16.40;10.38;;;;;;;25.65;57.28;100229.02;1782869;80;21008;-64
2023/06/23 05:14:53;;;;;;;13.45;10.32;;;;;;;25.95;55.00;100230.01;1762961;80;21068;-63
2023/06/23 05:17:22;;;;;;;16.07;10.38;;;;;;;26.23;54.30;100236.05;1782963;80;21012;-65
2023/06/23 05:19:52;;;;;;;14.50;10.53;;;;;;;26.55;53.07;100225.98;1782633;80;21051;-63
2023/06/23 05:22:22;;;;;;;16.82;10.15;;;;;;;26.84;52.43;100222.38;1782681;80;21020;-64
2023/06/23 05:24:55;;;;;;;14.15;9.98;;;;;;;27.13;51.73;100233.94;1763681;80;21023;-64
2023/06/23 05:27:24;;;;;;;19.57;10.88;;;;;;;27.41;50.64;100221.56;1782638;80;21044;-63
2023/06/23 05:29:57;;;;;;;15.53;12.47;;;;;;;27.63;49.48;100222.23;1782598;80;21036;-64
2023/06/23 05:32:29;;;;;;;15.03;10.55;;;;;;;27.82;49.18;100228.30;1739485;80;21016;-64
2023/06/23 05:35:03;;;;;;;21.20;12.00;;;;;;;28.29;47.70;100219.89;1782866;80;21008;-64
2023/06/23 05:37:34;;;;;;;19.12;12.37;;;;;;;28.29;47.70;100219.89;1782868;80;21066;-65
2023/06/23 05:40:05;;;;;;;20.20;12.63;;;;;;;28.54;46.71;100224.88;1782480;80;21051;-64
2023/06/23 05:42:34;;;;;;;17.65;11.70;;;;;;;28.79;46.09;100224.80;1763283;80;21457;-65
2023/06/23 05:45:05;;;;;;;15.20;11.75;;;;;;;29.03;45.50;100223.04;1782679;80;21027;-64
2023/06/23 05:48:10;;;;;;;18.82;12.37;;;;;;;29.23;45.38;100219.63;1782784;80;21134;-64
2023/06/23 05:50:40;;;;;;;20.32;12.23;;;;;;;29.44;44.76;100214.85;1742731;80;21725;-64
2023/06/23 05:53:13;;;;;;;20.57;11.63;;;;;;;29.64;44.08;100208.58;1782710;80;21023;-63
2023/06/23 05:56:04;;;;;;;15.98;11.65;;;;;;;29.77;44.10;100210.42;1782838;79;21482;-63
2023/06/23 05:58:40;;;;;;;18.62;11.50;;;;;;;29.95;43.87;100214.13;1782576;80;21020;-65
2023/06/23 06:01:12;;;;;;;16.37;10.72;;;;;;;30.22;43.16;100220.05;1763862;80;21016;-63
2023/06/23 06:03:46;;;;;;;21.62;12.70;;;;;;;30.44;42.73;100217.03;1763835;80;20992;-64
2023/06/23 06:06:16;;;;;;;15.30;11.40;;;;;;;30.61;41.63;100210.58;1764431;80;21082;-66
2023/06/23 06:08:47;;;;;;;16.52;10.63;;;;;;;30.78;41.53;100209.69;1765543;80;21035;-65
2023/06/23 06:11:16;;;;;;;17.75;12.25;;;;;;;30.88;40.59;100215.81;1785005;80;21020;-65
2023/06/23 06:13:47;;;;;;;18.35;11.57;;;;;;;30.94;40.28;100218.46;1784883;80;21039;-63
2023/06/23 06:16:24;;;;;;;15.88;11.45;;;;;;;31.03;40.24;100210.18;1785021;80;21482;-63
2023/06/23 06:18:53;;;;;;;18.00;11.40;;;;;;;31.22;40.05;100205.58;1785110;80;21059;-64
2023/06/23 06:21:23;;;;;;;18.30;12.23;;;;;;;31.35;39.41;100210.76;1784809;80;21035;-65
2023/06/23 06:23:53;;;;;;;13.72;11.28;;;;;;;31.42;39.25;100206.22;1784937;80;21015;-65
2023/06/23 06:26:24;;;;;;;20.27;13.05;;;;;;;31.46;39.49;100203.53;1784990;80;21161;-65
2023/06/23 06:28:54;;;;;;;19.92;12.30;;;;;;;31.42;38.69;100194.06;1785049;80;21016;-65
2023/06/23 06:31:24;;;;;;;17.98;11.80;;;;;;;31.29;39.06;100193.72;1785148;80;21044;-65
2023/06/23 06:33:53;;;;;;;15.55;11.83;;;;;;;31.36;39.60;100192.59;1784995;80;21035;-64
2023/06/23 06:36:23;;;;;;;22.10;13.32;;;;;;;31.52;38.45;100192.25;1785374;80;21020;-65
2023/06/23 06:38:53;;;;;;;15.18;11.18;;;;;;;31.42;38.84;100185.56;1784978;80;21055;-64
2023/06/23 06:41:22;;;;;;;15.15;12.13;;;;;;;31.46;39.34;100197.86;1784974;80;21071;-65
2023/06/23 06:43:51;;;;;;;19.17;12.55;;;;;;;31.65;39.04;100189.73;1678886;84;21506;-67
2023/06/23 06:46:21;;;;;;;18.82;12.23;;;;;;;31.88;38.44;100199.38;1642957;84;21023;-66
2023/06/23 06:48:51;;;;;;;16.25;12.13;;;;;;;31.99;37.88;100192.95;1702281;84;21011;-64
2023/06/23 06:51:22;;;;;;;21.07;13.48;;;;;;;31.93;38.26;100200.59;1702183;84;21080;-64
2023/06/23 06:53:52;;;;;;;15.75;11.40;;;;;;;31.95;38.36;100196.82;1583078;88;21136;-64
2023/06/23 06:56:23;;;;;;;14.85;12.07;;;;;;;31.97;38.25;100194.47;1620078;88;21085;-65
2023/06/23 06:58:52;;;;;;;17.60;12.45;;;;;;;32.06;37.89;100193.81;1599496;88;21518;-66
2023/06/23 07:01:22;;;;;;;15.63;11.45;;;;;;;32.12;37.87;100192.42;1639082;84;21044;-66
2023/06/23 07:03:52;;;;;;;16.23;12.45;;;;;;;32.16;37.65;100180.04;1702061;84;21020;-64
2023/06/23 07:06:21;;;;;;;19.30;12.98;;;;;;;32.20;37.69;100177.33;1701771;84;21080;-65
2023/06/23 07:08:52;;;;;;;14.33;11.65;;;;;;;32.33;37.53;100179.07;1629589;88;21079;-64
2023/06/23 07:11:21;;;;;;;15.43;11.68;;;;;;;32.42;37.67;100174.72;1669999;82;21061;-64
2023/06/23 07:13:51;;;;;;;18.48;11.57;;;;;;;32.54;37.60;100173.38;1784813;80;20988;-66
2023/06/23 07:16:21;;;;;;;16.70;11.88;;;;;;;32.66;37.77;100172.57;1765466;80;21541;-65
2023/06/23 07:18:51;;;;;;;14.95;10.85;;;;;;;32.82;37.56;100176.41;1785175;80;20996;-66
2023/06/23 07:21:21;;;;;;;14.45;10.95;;;;;;;33.02;36.66;100176.91;1765841;80;21016;-64
2023/06/23 07:23:51;;;;;;;14.43;11.33;;;;;;;33.14;36.25;100173.83;1766129;80;20996;-65
2023/06/23 07:26:21;;;;;;;15.68;11.28;;;;;;;33.17;35.76;100167.48;1784984;80;20992;-64
2023/06/23 07:28:50;;;;;;;12.95;10.38;;;;;;;33.24;36.01;100159.19;1784986;80;21119;-66
2023/06/23 07:31:21;;;;;;;14.25;10.88;;;;;;;33.31;35.40;100165.13;1784941;80;20991;-65
2023/06/23 07:33:50;;;;;;;14.65;10.82;;;;;;;33.11;35.42;100162.59;1784868;80;21491;-65
2023/06/23 07:36:20;;;;;;;17.80;11.48;;;;;;;32.80;36.04;100163.17;1785146;79;21474;-66
2023/06/23 07:38:50;;;;;;;16.32;11.97;;;;;;;32.55;36.60;100165.10;1765637;80;21027;-64
2023/06/23 07:41:22;;;;;;;13.15;10.82;;;;;;;32.39;37.25;100165.50;1785045;80;20996;-65
2023/06/23 07:43:52;;;;;;;12.88;11.25;;;;;;;32.17;37.78;100165.27;1784932;80;21482;-65
2023/06/23 07:46:21;;;;;;;28.35;12.33;;;;;;;32.03;38.35;100159.07;1785149;79;21424;-65
2023/06/23 07:48:52;;;;;;;14.33;10.60;;;;;;;32.05;38.46;100159.55;1785056;80;21047;-64
2023/06/23 07:51:22;;;;;;;12.75;11.33;;;;;;;32.16;38.24;100157.94;1785147;80;21059;-65
2023/06/23 07:53:55;;;;;;;13.85;11.22;;;;;;;32.19;37.91;100159.25;1784227;80;21032;-66
2023/06/23 07:56:27;;;;;;;15.10;11.95;;;;;;;32.22;38.38;100150.88;1781340;80;21015;-65
2023/06/23 07:58:56;;;;;;;14.38;10.78;;;;;;;32.48;37.51;100159.97;1783427;80;21035;-68
2023/06/23 08:01:26;;;;;;;21.15;11.75;;;;;;;32.77;36.99;100166.67;1748431;80;20989;-64
2023/06/23 08:03:55;;;;;;;13.10;10.23;;;;;;;33.00;36.04;100164.25;1762952;79;21051;-65
2023/06/23 08:06:25;;;;;;;11.18;10.08;;;;;;;33.16;35.88;100153.02;1779397;79;21163;-65
2023/06/23 08:08:56;;;;;;;11.80;10.60;;;;;;;33.34;35.57;100152.47;1691719;84;21006;-64
2023/06/23 08:11:25;;;;;;;10.70;9.60;;;;;;;33.45;35.65;100148.55;1759268;81;21624;-64
2023/06/23 08:13:56;;;;;;;13.53;9.90;;;;;;;33.51;34.22;100156.23;1759596;81;21023;-65
2023/06/23 08:16:28;;;;;;;10.53;9.40;;;;;;;33.42;34.27;100149.27;1761430;81;21464;-63
2023/06/23 08:18:57;;;;;;;13.00;9.78;;;;;;;33.45;34.50;100152.80;1686511;84;21617;-64
2023/06/23 08:21:27;;;;;;;12.50;9.68;;;;;;;33.58;34.61;100145.91;1772880;81;21459;-64
2023/06/23 08:23:56;;;;;;;13.30;10.15;;;;;;;33.76;34.60;100140.78;1772548;81;21460;-66
2023/06/23 08:26:27;;;;;;;11.80;10.00;;;;;;;33.79;34.09;100134.38;1706592;84;21503;-64
2023/06/23 08:28:56;;;;;;;13.70;9.00;;;;;;;33.78;33.86;100141.84;1687806;85;21087;-65
2023/06/23 08:31:26;;;;;;;12.95;9.65;;;;;;;33.69;33.38;100128.59;1635484;85;21170;-65
2023/06/23 08:33:56;;;;;;;15.98;10.20;;;;;;;33.70;33.50;100132.27;1687780;85;21213;-64
2023/06/23 08:36:25;;;;;;;13.25;9.60;;;;;;;33.71;33.48;100130.48;1628022;88;21107;-65
2023/06/23 08:38:55;;;;;;;11.43;9.18;;;;;;;33.70;33.62;100128.83;1687796;85;21544;-65
2023/06/23 08:41:25;;;;;;;11.28;8.38;;;;;;;33.78;33.41;100124.19;1687939;85;21074;-64
2023/06/23 08:43:56;;;;;;;11.97;8.25;;;;;;;33.88;33.05;100125.75;1643263;85;21079;-64
2023/06/23 08:46:30;;;;;;;9.60;8.30;;;;;;;33.88;32.66;100130.84;1627767;88;21075;-64
2023/06/23 08:49:06;;;;;;;10.88;8.90;;;;;;;33.88;32.97;100132.86;1687888;85;21439;-63
2023/06/23 08:51:40;;;;;;;10.80;8.95;;;;;;;33.94;32.92;100126.56;1687852;85;21475;-63
2023/06/23 08:54:10;;;;;;;14.63;8.55;;;;;;;34.04;32.51;100122.37;1689165;84;21096;-63
2023/06/23 08:56:40;;;;;;;9.88;8.78;;;;;;;34.04;32.21;100116.69;1685264;84;21036;-65
2023/06/23 08:59:18;;;;;;;12.65;9.73;;;;;;;34.02;32.81;100124.16;1706569;84;21050;-64
2023/06/23 09:01:47;;;;;;;10.32;8.68;;;;;;;34.11;32.74;100122.58;1772816;80;20996;-65
2023/06/23 09:04:18;;;;;;;11.70;8.25;;;;;;;34.29;32.60;100115.37;1706477;84;21574;-64
2023/06/23 09:06:49;;;;;;;10.95;9.85;;;;;;;34.39;31.98;100122.57;1747641;80;21063;-64
2023/06/23 09:09:20;;;;;;;10.25;8.55;;;;;;;34.43;32.00;100111.28;1690703;84;21045;-65
2023/06/23 09:11:50;;;;;;;13.03;8.35;;;;;;;34.45;31.68;100114.59;1764577;81;21607;-66
2023/06/23 09:14:20;;;;;;;9.93;8.25;;;;;;;34.45;31.69;100108.30;1764692;80;21070;-66
2023/06/23 09:16:50;;;;;;;12.15;9.58;;;;;;;34.44;32.43;100101.56;1764729;80;21078;-65
2023/06/23 09:19:24;;;;;;;11.80;9.03;;;;;;;34.41;31.83;100098.02;1737550;81;21062;-66
2023/06/23 09:21:58;;;;;;;11.80;8.73;;;;;;;34.25;31.93;100105.91;1720619;81;21031;-64
2023/06/23 09:24:46;;;;;;;14.73;9.15;;;;;;;34.10;32.19;100097.34;1654314;85;21065;-65
2023/06/23 09:27:20;;;;;;;9.45;7.80;;;;;;;34.00;31.77;100105.80;1654465;87;21053;-64
2023/06/23 09:30:02;;;;;;;9.65;8.65;;;;;;;33.84;32.12;100099.23;1654100;87;21140;-65
2023/06/23 09:32:33;;;;;;;12.58;8.98;;;;;;;33.73;32.65;100098.86;1654394;87;21061;-63
2023/06/23 09:35:03;;;;;;;10.23;8.53;;;;;;;33.59;32.75;100095.00;1632174;87;21061;-64
2023/06/23 09:37:36;;;;;;;8.78;7.72;;;;;;;33.50;33.04;100084.97;1571551;90;21474;-66
2023/06/23 09:40:09;;;;;;;11.43;8.08;;;;;;;33.50;32.83;100091.48;1571735;90;21109;-65
2023/06/23 09:42:45;;;;;;;10.60;7.90;;;;;;;33.49;32.18;100082.72;1571733;91;21055;-64
2023/06/23 09:45:18;;;;;;;11.35;7.92;;;;;;;33.48;32.46;100085.92;1571692;91;21051;-64
2023/06/23 09:47:51;;;;;;;8.93;7.22;;;;;;;33.44;31.85;100087.23;1571777;91;21498;-63
2023/06/23 09:50:22;;;;;;;9.98;7.92;;;;;;;33.32;31.71;100085.25;1673789;86;21051;-63
2023/06/23 09:53:04;;;;;;;10.88;8.68;;;;;;;33.20;32.01;100073.05;1651322;86;21047;-63
2023/06/23 09:55:35;;;;;;;13.43;8.63;;;;;;;33.09;32.40;100076.34;1714086;81;21055;-66
2023/06/23 09:58:08;;;;;;;10.32;8.48;;;;;;;33.01;32.74;100074.47;1764675;80;21039;-66
2023/06/23 10:00:36;;;;;;;11.05;7.90;;;;;;;32.89;32.02;100073.65;1764685;81;21093;-62
2023/06/23 10:03:06;;;;;;;8.25;7.45;;;;;;;32.73;32.50;100070.66;1764472;81;21094;-62
2023/06/23 10:05:38;;;;;;;10.68;7.90;;;;;;;32.62;32.75;100065.22;1764482;80;20995;-63
2023/06/23 10:08:14;;;;;;;12.40;7.75;;;;;;;32.60;32.90;100061.91;1775904;80;21108;-63
2023/06/23 10:10:44;;;;;;;;;;;;;;;32.50;32.90;100061.75;1722184;83;21043;-63
2023/06/23 10:13:14;;;;;;;8.63;7.62;;;;;;;32.46;33.09;100057.97;1718006;83;20462;-64
2023/06/23 10:15:44;;;;;;;10.10;7.85;;;;;;;32.34;33.27;100055.94;1633008;88;21220;-65
2023/06/23 10:18:15;;;;;;;10.03;8.05;;;;;;;32.35;33.70;100060.44;1670939;85;21094;-65
2023/06/23 10:20:47;;;;;;;9.00;7.90;;;;;;;32.37;33.36;100060.08;1668045;86;21090;-65
2023/06/23 10:23:17;;;;;;;9.48;8.40;;;;;;;32.40;34.05;100055.95;1609567;89;21070;-63
2023/06/23 10:25:47;;;;;;;9.80;8.50;;;;;;;32.49;33.93;100053.01;1609309;89;21603;-65
2023/06/23 10:28:18;;;;;;;13.10;8.48;;;;;;;32.51;33.96;100051.23;1609626;89;21553;-64
2023/06/23 10:30:49;;;;;;;9.48;8.28;;;;;;;32.50;33.89;100058.09;1609406;89;21062;-64
2023/06/23 10:33:21;;;;;;;13.62;8.70;;;;;;;32.42;33.55;100055.01;1575836;88;21176;-64
2023/06/23 10:35:54;;;;;;;9.18;8.23;;;;;;;32.36;33.77;100062.09;1693108;85;21142;-65
2023/06/23 10:38:27;;;;;;;8.88;7.92;;;;;;;32.34;33.71;100053.70;1697631;80;21063;-64
2023/06/23 10:41:04;;;;;;;9.65;8.25;;;;;;;32.37;33.75;100055.24;1786646;80;21078;-64
2023/06/23 10:43:37;;;;;;;9.63;8.60;;;;;;;32.41;33.73;100056.19;1694400;83;21035;-64
2023/06/23 10:46:09;;;;;;;9.70;8.70;;;;;;;32.41;33.18;100053.94;1719824;83;21087;-64
2023/06/23 10:48:39;;;;;;;10.53;8.38;;;;;;;32.34;33.61;100065.04;1719754;83;21111;-65
2023/06/23 10:51:11;;;;;;;8.80;7.78;;;;;;;32.32;33.32;100058.89;1719797;83;21134;-63
2023/06/23 10:53:58;;;;;;;12.45;8.15;;;;;;;32.19;33.39;100062.27;1670342;83;21537;-64
2023/06/23 10:56:35;;;;;;;16.25;9.55;;;;;;;32.14;33.73;100064.73;1715300;83;21015;-65
2023/06/23 10:59:27;;;;;;;9.75;8.75;;;;;;;32.15;34.08;100068.39;1722221;82;21087;-62
2023/06/23 11:02:10;;;;;;;11.18;8.90;;;;;;;32.24;34.09;100072.00;1749166;82;21545;-63
2023/06/23 11:04:42;;;;;;;14.28;8.60;;;;;;;32.30;34.34;100062.67;1749375;82;21035;-63
2023/06/23 11:07:12;;;;;;;12.05;8.40;;;;;;;32.34;34.45;100057.36;1716250;83;21720;-62
2023/06/23 11:09:54;;;;;;;10.58;7.70;;;;;;;32.38;34.65;100058.31;1731735;82;21007;-64
2023/06/23 11:12:47;;;;;;;9.13;8.13;;;;;;;32.43;34.61;100053.83;1751032;82;21563;-64
2023/06/23 11:15:24;;;;;;;10.13;8.23;;;;;;;32.42;34.34;100049.34;1732922;82;21106;-64
2023/06/23 11:18:07;;;;;;;11.33;8.00;;;;;;;32.37;34.37;100048.15;1734076;82;21086;-66
2023/06/23 11:20:44;;;;;;;11.97;7.78;;;;;;;32.35;34.82;100051.92;1751723;82;21040;-62
2023/06/23 11:23:14;;;;;;;9.08;8.10;;;;;;;32.36;34.26;100059.25;1751821;82;21020;-64
2023/06/23 11:25:47;;;;;;;9.53;7.62;;;;;;;32.27;34.18;100049.20;1751604;82;21056;-62
2023/06/23 11:47:41;;;;;;;10.82;8.70;;;;;;;32.80;34.40;100030.37;1776585;80;28142;-66
2023/06/23 11:50:12;;;;;;;13.75;12.07;;;;;;;32.75;34.62;100030.81;1756239;82;21185;-66
2023/06/23 11:52:48;;;;;;;11.40;8.90;;;;;;;32.67;34.73;100021.01;1705170;82;21542;-63
2023/06/23 11:55:18;;;;;;;14.53;10.08;;;;;;;32.60;35.01;100029.28;1774606;80;21141;-63
2023/06/23 11:57:47;;;;;;;10.32;8.93;;;;;;;32.46;35.26;100030.43;1757041;82;21141;-66